createdAt,value
2023-01-08T00:01:05.066Z,8.09
2023-01-08T00:03:31.747Z,7.98
2023-01-08T00:06:02.968Z,7.90
2023-01-08T00:08:30.827Z,7.85
2023-01-08T00:10:58.427Z,7.82
2023-01-08T00:13:25.085Z,7.78
2023-01-08T00:15:51.806Z,7.72
2023-01-08T00:18:18.507Z,7.71
2023-01-08T00:20:46.075Z,7.68
2023-01-08T00:23:16.966Z,7.67
2023-01-08T00:25:43.591Z,7.65
2023-01-08T00:28:10.204Z,7.62
2023-01-08T00:30:37.630Z,7.60
2023-01-08T00:33:04.448Z,7.56
2023-01-08T00:35:31.038Z,7.55
2023-01-08T00:37:58.002Z,7.51
2023-01-08T00:40:24.680Z,7.47
2023-01-08T00:42:51.285Z,7.44
2023-01-08T00:45:18.025Z,7.40
2023-01-08T00:47:44.621Z,7.40
2023-01-08T00:50:11.383Z,7.36
2023-01-08T00:52:38.438Z,7.35
2023-01-08T00:55:05.554Z,7.37
2023-01-08T00:57:36.411Z,7.36
2023-01-08T01:00:06.862Z,7.35
2023-01-08T01:02:35.942Z,7.33
2023-01-08T01:05:05.754Z,7.34
2023-01-08T01:07:34.280Z,7.36
2023-01-08T01:10:01.203Z,7.35
2023-01-08T01:12:29.097Z,7.37
2023-01-08T01:14:57.347Z,7.37
2023-01-08T01:17:23.971Z,7.38
2023-01-08T01:19:50.510Z,7.41
2023-01-08T01:22:16.988Z,7.44
2023-01-08T01:24:43.526Z,7.50
2023-01-08T01:27:09.984Z,7.54
2023-01-08T01:29:36.643Z,7.62
2023-01-08T01:32:03.247Z,7.67
2023-01-08T01:34:29.822Z,7.70
2023-01-08T01:36:56.350Z,7.70
2023-01-08T01:39:26.077Z,7.70
2023-01-08T01:41:53.398Z,7.70
2023-01-08T01:44:43.185Z,7.71
2023-01-08T01:47:34.181Z,7.75
2023-01-08T01:50:05.542Z,7.75
2023-01-08T01:52:40.136Z,7.77
2023-01-08T01:55:09.120Z,7.78
2023-01-08T01:57:36.988Z,7.77
2023-01-08T02:00:08.412Z,7.81
2023-01-08T02:02:35.395Z,7.82
2023-01-08T02:05:02.306Z,7.79
2023-01-08T02:07:35.853Z,7.74
2023-01-08T02:10:28.112Z,7.71
2023-01-08T02:13:21.607Z,7.70
2023-01-08T02:16:03.606Z,7.69
2023-01-08T02:18:42.127Z,7.67
2023-01-08T02:21:13.489Z,7.66
2023-01-08T02:24:03.260Z,7.64
2023-01-08T02:26:35.997Z,7.61
2023-01-08T02:29:38.175Z,7.58
2023-01-08T02:32:05.145Z,7.56
2023-01-08T02:34:32.810Z,7.54
2023-01-08T02:37:00.787Z,7.53
2023-01-08T02:39:49.054Z,7.52
2023-01-08T02:42:46.693Z,7.53
2023-01-08T02:45:25.225Z,7.51
2023-01-08T02:47:59.405Z,7.51
2023-01-08T02:50:36.156Z,7.53
2023-01-08T02:53:11.974Z,7.52
2023-01-08T02:55:41.730Z,7.53
2023-01-08T02:58:09.327Z,7.54
2023-01-08T03:00:36.990Z,7.54
2023-01-08T03:03:23.856Z,7.55
2023-01-08T03:05:53.883Z,7.56
2023-01-08T03:08:21.563Z,7.56
2023-01-08T03:11:10.447Z,7.54
2023-01-08T03:13:49.184Z,7.54
2023-01-08T03:16:18.917Z,7.56
2023-01-08T03:18:52.415Z,7.56
2023-01-08T03:21:22.128Z,7.56
2023-01-08T03:23:50.779Z,7.55
2023-01-08T03:26:23.643Z,7.55
2023-01-08T03:28:54.042Z,7.55
2023-01-08T03:31:23.350Z,7.52
2023-01-08T03:33:50.702Z,7.51
2023-01-08T03:36:24.068Z,7.48
2023-01-08T03:38:59.362Z,7.47
2023-01-08T03:41:30.077Z,7.45
2023-01-08T03:43:57.193Z,7.42
2023-01-08T03:46:30.659Z,7.42
2023-01-08T03:48:59.693Z,7.42
2023-01-08T03:51:26.695Z,7.38
2023-01-08T03:53:58.776Z,7.37
2023-01-08T03:56:25.934Z,7.36
2023-01-08T03:58:52.570Z,7.35
2023-01-08T04:01:19.105Z,7.33
2023-01-08T04:03:46.029Z,7.33
2023-01-08T04:06:15.575Z,7.31
2023-01-08T04:08:42.115Z,7.32
2023-01-08T04:11:08.696Z,7.32
2023-01-08T04:13:35.219Z,7.32
2023-01-08T04:16:01.855Z,7.32
2023-01-08T04:18:29.028Z,7.33
2023-01-08T04:20:55.792Z,7.32
2023-01-08T04:23:22.385Z,7.31
2023-01-08T04:25:49.028Z,7.30
2023-01-08T04:28:18.401Z,7.29
2023-01-08T04:30:46.003Z,7.27
2023-01-08T04:33:12.749Z,7.23
2023-01-08T04:35:39.596Z,7.21
2023-01-08T04:38:06.086Z,7.18
2023-01-08T04:40:34.573Z,7.17
2023-01-08T04:43:01.256Z,7.15
2023-01-08T04:45:27.893Z,7.13
2023-01-08T04:47:58.965Z,7.10
2023-01-08T04:50:27.229Z,7.10
2023-01-08T04:52:53.726Z,7.10
2023-01-08T04:55:20.535Z,7.07
2023-01-08T04:57:48.171Z,7.04
2023-01-08T05:00:15.434Z,6.98
2023-01-08T05:02:42.267Z,6.95
2023-01-08T05:05:09.118Z,6.91
2023-01-08T05:07:35.791Z,6.89
2023-01-08T05:10:02.653Z,6.88
2023-01-08T05:12:29.221Z,6.85
2023-01-08T05:14:55.881Z,6.86
2023-01-08T05:17:22.457Z,6.86
2023-01-08T05:19:49.022Z,6.85
2023-01-08T05:22:15.822Z,6.85
2023-01-08T05:24:42.581Z,6.82
2023-01-08T05:27:09.144Z,6.78
2023-01-08T05:29:35.836Z,6.76
2023-01-08T05:32:02.299Z,6.70
2023-01-08T05:34:28.874Z,6.65
2023-01-08T05:36:55.303Z,6.61
2023-01-08T05:39:22.095Z,6.57
2023-01-08T05:41:51.007Z,6.51
2023-01-08T05:44:17.520Z,6.50
2023-01-08T05:46:44.072Z,6.49
2023-01-08T05:49:10.667Z,6.46
2023-01-08T05:51:37.738Z,6.42
2023-01-08T05:54:04.517Z,6.40
2023-01-08T05:56:31.088Z,6.38
2023-01-08T05:58:57.547Z,6.33
2023-01-08T06:01:24.080Z,6.30
2023-01-08T06:03:51.262Z,6.27
2023-01-08T06:06:18.464Z,6.19
2023-01-08T06:08:45.068Z,6.15
2023-01-08T06:11:12.100Z,6.12
2023-01-08T06:13:42.280Z,6.09
2023-01-08T06:16:09.773Z,6.05
2023-01-08T06:18:36.862Z,6.00
2023-01-08T06:21:05.341Z,5.96
2023-01-08T06:23:32.456Z,5.91
2023-01-08T06:26:00.983Z,5.87
2023-01-08T06:28:27.739Z,5.86
2023-01-08T06:30:54.307Z,5.80
2023-01-08T06:33:21.576Z,5.76
2023-01-08T06:35:48.361Z,5.73
2023-01-08T06:38:15.025Z,5.71
2023-01-08T06:40:41.619Z,5.67
2023-01-08T06:43:08.205Z,5.65
2023-01-08T06:45:34.818Z,5.62
2023-01-08T06:48:03.430Z,5.61
2023-01-08T06:50:30.288Z,5.58
2023-01-08T06:52:57.381Z,5.57
2023-01-08T06:55:25.120Z,5.53
2023-01-08T06:57:56.377Z,5.49
2023-01-08T07:00:24.074Z,5.44
2023-01-08T07:02:51.668Z,5.42
2023-01-08T07:05:19.048Z,5.38
2023-01-08T07:07:45.920Z,5.34
2023-01-08T07:10:12.565Z,5.33
2023-01-08T07:12:39.153Z,5.30
2023-01-08T07:15:10.347Z,5.23
2023-01-08T07:17:37.465Z,5.19
2023-01-08T07:20:04.416Z,5.15
2023-01-08T07:22:30.993Z,5.14
2023-01-08T07:24:59.005Z,5.10
2023-01-08T07:27:26.117Z,5.11
2023-01-08T07:29:53.168Z,5.10
2023-01-08T07:32:21.936Z,5.09
2023-01-08T07:34:50.093Z,5.06
2023-01-08T07:37:18.111Z,5.07
2023-01-08T07:39:47.052Z,5.08
2023-01-08T07:42:17.401Z,5.07
2023-01-08T07:44:45.174Z,5.06
2023-01-08T07:47:32.676Z,5.04
2023-01-08T07:50:08.445Z,5.03
2023-01-08T07:52:36.637Z,5.02
2023-01-08T07:55:03.473Z,5.02
2023-01-08T07:57:31.704Z,4.98
2023-01-08T07:59:58.257Z,4.96
2023-01-08T08:02:26.354Z,4.96
2023-01-08T08:04:53.075Z,4.96
2023-01-08T08:07:23.476Z,4.93
2023-01-08T08:09:50.067Z,4.92
2023-01-08T08:12:16.756Z,4.94
2023-01-08T08:14:44.126Z,4.94
2023-01-08T08:17:11.267Z,4.95
2023-01-08T08:19:37.739Z,4.97
2023-01-08T08:22:10.075Z,4.97
2023-01-08T08:24:42.125Z,4.99
2023-01-08T08:27:10.245Z,5.04
2023-01-08T08:29:36.696Z,5.03
2023-01-08T08:32:03.637Z,5.06
2023-01-08T08:34:30.217Z,5.10
2023-01-08T08:36:56.754Z,5.12
2023-01-08T08:39:26.070Z,5.15
2023-01-08T08:41:52.653Z,5.17
2023-01-08T08:44:29.428Z,5.17
2023-01-08T08:46:57.303Z,5.18
2023-01-08T08:49:26.030Z,5.17
2023-01-08T08:51:53.425Z,5.15
2023-01-08T08:54:19.893Z,5.14
2023-01-08T08:56:48.628Z,5.11
2023-01-08T08:59:15.148Z,5.11
2023-01-08T09:01:41.908Z,5.11
2023-01-08T09:04:08.600Z,5.09
2023-01-08T09:06:35.254Z,5.09
2023-01-08T09:09:01.905Z,5.10
2023-01-08T09:11:28.451Z,5.10
2023-01-08T09:13:55.143Z,5.14
2023-01-08T09:16:22.097Z,5.20
2023-01-08T09:18:49.511Z,5.28
2023-01-08T09:21:16.214Z,5.33
2023-01-08T09:23:42.785Z,5.40
2023-01-08T09:26:09.871Z,5.44
2023-01-08T09:28:36.737Z,5.51
2023-01-08T09:31:03.853Z,5.56
2023-01-08T09:33:30.921Z,5.60
2023-01-08T09:35:57.443Z,5.64
2023-01-08T09:38:23.984Z,5.67
2023-01-08T09:41:10.352Z,5.73
2023-01-08T09:43:40.404Z,5.77
2023-01-08T09:46:11.477Z,5.81
2023-01-08T09:48:41.083Z,5.84
2023-01-08T09:51:16.489Z,5.93
2023-01-08T09:53:44.015Z,5.96
2023-01-08T09:56:16.546Z,6.02
2023-01-08T09:58:50.478Z,6.07
2023-01-08T10:01:23.618Z,6.11
2023-01-08T10:04:03.927Z,6.16
2023-01-08T10:06:33.457Z,6.19
2023-01-08T10:09:00.244Z,6.23
2023-01-08T10:11:31.491Z,6.26
2023-01-08T10:13:58.060Z,6.33
2023-01-08T10:16:36.823Z,6.39
2023-01-08T10:19:04.783Z,6.44
2023-01-08T10:21:37.578Z,6.50
2023-01-08T10:24:04.408Z,6.58
2023-01-08T10:26:36.531Z,6.78
2023-01-08T10:29:19.753Z,6.93
2023-01-08T10:31:54.289Z,7.02
2023-01-08T10:34:48.855Z,7.11
2023-01-08T10:37:23.526Z,7.16
2023-01-08T10:39:53.914Z,7.23
2023-01-08T10:42:23.365Z,7.29
2023-01-08T10:45:28.483Z,7.33
2023-01-08T10:48:01.947Z,7.35
2023-01-08T10:53:29.362Z,7.50
2023-01-08T10:56:04.863Z,7.58
2023-01-08T10:58:56.308Z,7.60
2023-01-08T11:01:30.764Z,7.59
2023-01-08T11:04:10.976Z,7.68
2023-01-08T11:06:45.602Z,7.70
2023-01-08T11:09:40.987Z,7.71
2023-01-08T11:12:26.888Z,7.72
2023-01-08T11:14:53.724Z,7.72
2023-01-08T11:17:27.200Z,7.73
2023-01-08T11:19:55.808Z,7.76
2023-01-08T11:22:29.331Z,7.80
2023-01-08T11:25:02.895Z,7.86
2023-01-08T11:27:37.516Z,7.92
2023-01-08T11:30:07.098Z,7.94
2023-01-08T11:32:57.919Z,8.01
2023-01-08T11:35:47.416Z,8.01
2023-01-08T11:38:26.959Z,7.90
2023-01-08T11:41:18.276Z,7.97
2023-01-08T11:44:06.315Z,8.06
2023-01-08T11:46:50.733Z,8.16
2023-01-08T11:49:40.573Z,8.23
2023-01-08T11:55:40.392Z,8.28
2023-01-08T11:58:54.756Z,8.37
2023-01-08T12:02:04.639Z,8.47
2023-01-08T12:05:06.231Z,8.56
2023-01-08T12:08:05.845Z,8.62
2023-01-08T12:10:57.754Z,8.64
2023-01-08T12:14:04.546Z,8.57
2023-01-08T12:16:55.566Z,8.56
2023-01-08T12:20:39.249Z,8.58
2023-01-08T12:32:56.541Z,8.50
2023-01-08T12:35:30.174Z,8.53
2023-01-08T12:37:56.742Z,8.52
2023-01-08T12:40:35.769Z,8.50
2023-01-08T12:43:10.807Z,8.50
2023-01-08T12:45:59.602Z,8.59
2023-01-08T12:48:33.917Z,8.59
2023-01-08T12:51:30.896Z,8.63
2023-01-08T12:54:39.245Z,8.64
2023-01-08T12:57:29.953Z,8.60
2023-01-08T13:00:15.888Z,8.53
2023-01-08T13:03:06.857Z,8.47
2023-01-08T13:05:39.363Z,8.52
2023-01-08T13:08:20.897Z,8.53
2023-01-08T13:10:55.134Z,8.47
2023-01-08T13:13:46.374Z,8.46
2023-01-08T13:16:33.549Z,8.65
2023-01-08T13:19:02.516Z,8.88
2023-01-08T13:21:43.542Z,8.95
2023-01-08T13:24:32.778Z,8.98
2023-01-08T13:27:18.698Z,8.93
2023-01-08T13:29:52.019Z,8.82
2023-01-08T13:32:39.370Z,8.78
2023-01-08T13:35:21.950Z,8.85
2023-01-08T13:38:17.462Z,8.84
2023-01-08T13:40:52.408Z,8.85
2023-01-08T13:43:27.623Z,8.78
2023-01-08T13:46:11.862Z,8.75
2023-01-08T13:49:03.691Z,8.72
2023-01-08T13:51:44.985Z,8.68
2023-01-08T13:54:12.180Z,8.64
2023-01-08T13:56:40.365Z,8.59
2023-01-08T13:59:24.743Z,8.59
2023-01-08T14:01:56.345Z,8.54
2023-01-08T14:04:25.984Z,8.49
2023-01-08T14:06:52.774Z,8.43
2023-01-08T14:09:26.119Z,8.37
2023-01-08T14:11:56.318Z,8.36
2023-01-08T14:14:38.370Z,8.27
2023-01-08T14:17:18.837Z,8.18
2023-01-08T14:19:45.825Z,8.10
2023-01-08T14:22:23.479Z,8.07
2023-01-08T14:24:55.935Z,8.04
2023-01-08T14:27:37.405Z,8.04
2023-01-08T14:30:28.297Z,7.98
2023-01-08T14:32:57.653Z,7.96
2023-01-08T14:35:42.841Z,7.94
2023-01-08T14:38:17.218Z,7.88
2023-01-08T14:41:12.563Z,7.82
2023-01-08T14:43:42.643Z,7.78
2023-01-08T14:46:26.901Z,7.77
2023-01-08T14:49:05.653Z,7.73
2023-01-08T14:54:46.526Z,7.71
2023-01-08T14:57:25.602Z,7.70
2023-01-08T15:00:22.396Z,7.65
2023-01-08T15:02:54.915Z,7.59
2023-01-08T15:05:24.757Z,7.54
2023-01-08T15:08:11.820Z,7.50
2023-01-08T15:10:45.144Z,7.46
2023-01-08T15:13:23.769Z,7.42
2023-01-08T15:16:06.296Z,7.37
2023-01-08T15:19:17.795Z,7.33
2023-01-08T15:22:05.759Z,7.28
2023-01-08T15:24:42.085Z,7.24
2023-01-08T15:27:20.403Z,7.15
2023-01-08T15:29:53.474Z,7.13
2023-01-08T15:32:24.154Z,7.06
2023-01-08T15:34:58.235Z,6.99
2023-01-08T15:37:31.516Z,6.95
2023-01-08T15:40:15.619Z,6.89
2023-01-08T15:43:02.676Z,6.87
2023-01-08T15:45:33.658Z,6.80
2023-01-08T15:48:04.848Z,6.74
2023-01-08T15:50:53.372Z,6.69
2023-01-08T15:53:26.264Z,6.63
2023-01-08T15:55:53.297Z,6.56
2023-01-08T15:58:19.819Z,6.50
2023-01-08T16:00:46.788Z,6.45
2023-01-08T16:03:14.976Z,6.38
2023-01-08T16:05:44.613Z,6.35
2023-01-08T16:08:13.204Z,6.33
2023-01-08T16:10:44.927Z,6.27
2023-01-08T16:13:12.466Z,6.25
2023-01-08T16:15:48.375Z,6.19
2023-01-08T16:18:16.484Z,6.13
2023-01-08T16:20:57.822Z,6.09
2023-01-08T16:23:40.087Z,6.08
2023-01-08T16:26:10.763Z,6.05
2023-01-08T16:28:42.733Z,6.00
2023-01-08T16:34:05.366Z,5.92
2023-01-08T16:39:37.739Z,5.85
2023-01-08T16:42:39.546Z,5.83
2023-01-08T16:45:15.733Z,5.78
2023-01-08T16:47:57.462Z,5.75
2023-01-08T16:50:38.835Z,5.71
2023-01-08T16:53:09.626Z,5.69
2023-01-08T16:55:40.898Z,5.66
2023-01-08T16:58:27.339Z,5.65
2023-01-08T17:01:02.353Z,5.63
2023-01-08T17:03:39.048Z,5.68
2023-01-08T17:06:16.039Z,5.74
2023-01-08T17:08:45.538Z,5.83
2023-01-08T17:11:15.327Z,5.87
2023-01-08T17:13:42.453Z,5.92
2023-01-08T17:16:11.945Z,5.92
2023-01-08T17:18:38.476Z,5.91
2023-01-08T17:21:05.817Z,5.91
2023-01-08T17:23:34.438Z,5.98
2023-01-08T17:26:06.762Z,6.05
2023-01-08T17:28:35.003Z,6.12
2023-01-08T17:31:12.268Z,6.18
2023-01-08T17:33:39.058Z,6.22
2023-01-08T17:36:15.657Z,6.28
2023-01-08T17:38:47.061Z,6.30
2023-01-08T17:41:36.375Z,6.33
2023-01-08T17:44:06.712Z,6.36
2023-01-08T17:46:50.314Z,6.42
2023-01-08T17:49:36.575Z,6.40
2023-01-08T17:52:10.551Z,6.42
2023-01-08T17:54:41.372Z,6.40
2023-01-08T17:57:11.792Z,6.37
2023-01-08T17:59:42.936Z,6.37
2023-01-08T18:02:13.036Z,6.38
2023-01-08T18:04:41.921Z,6.34
2023-01-08T18:07:12.049Z,6.33
2023-01-08T18:09:41.804Z,6.28
2023-01-08T18:12:12.190Z,6.24
2023-01-08T18:14:47.754Z,6.25
2023-01-08T18:17:18.886Z,6.27
2023-01-08T18:19:48.108Z,6.23
2023-01-08T18:22:15.796Z,6.20
2023-01-08T18:24:43.430Z,6.16
2023-01-08T18:27:31.009Z,6.11
2023-01-08T18:30:18.859Z,6.10
2023-01-08T18:32:48.823Z,6.10
2023-01-08T18:35:15.406Z,6.13
2023-01-08T18:40:44.046Z,6.21
2023-01-08T18:43:11.390Z,6.24
2023-01-08T18:45:39.067Z,6.26
2023-01-08T18:48:07.752Z,6.24
2023-01-08T18:50:34.197Z,6.20
2023-01-08T18:53:01.143Z,6.17
2023-01-08T18:55:31.302Z,6.15
2023-01-08T18:57:57.900Z,6.15
2023-01-08T19:00:26.348Z,6.16
2023-01-08T19:02:54.077Z,6.15
2023-01-08T19:05:21.680Z,6.10
2023-01-08T19:07:48.383Z,6.04
2023-01-08T19:10:15.667Z,6.00
2023-01-08T19:13:05.985Z,5.95
2023-01-08T19:15:32.862Z,5.95
2023-01-08T19:20:46.303Z,5.93
2023-01-08T19:23:19.602Z,5.91
2023-01-08T19:25:50.966Z,5.89
2023-01-08T19:28:21.976Z,5.86
2023-01-08T19:30:59.288Z,5.84
2023-01-08T19:33:29.655Z,5.81
2023-01-08T19:36:02.046Z,5.80
2023-01-08T19:38:28.443Z,5.85
2023-01-08T19:41:00.334Z,5.88
2023-01-08T19:43:42.245Z,5.94
2023-01-08T19:46:12.772Z,5.96
2023-01-08T19:48:40.835Z,6.02
2023-01-08T19:51:09.482Z,6.08
2023-01-08T19:53:39.920Z,6.10
2023-01-08T19:56:13.037Z,6.17
2023-01-08T19:58:39.950Z,6.22
2023-01-08T20:01:15.733Z,6.26
2023-01-08T20:03:42.966Z,6.23
2023-01-08T20:06:17.331Z,6.22
2023-01-08T20:08:55.626Z,6.20
2023-01-08T20:11:30.929Z,6.15
2023-01-08T20:14:02.839Z,6.12
2023-01-08T20:16:29.863Z,6.13
2023-01-08T20:19:02.331Z,6.12
2023-01-08T20:21:39.454Z,6.12
2023-01-08T20:24:10.976Z,6.13
2023-01-08T20:26:41.277Z,6.13
2023-01-08T20:29:14.075Z,6.10
2023-01-08T20:31:44.923Z,6.08
2023-01-08T20:34:20.231Z,6.11
2023-01-08T20:36:57.095Z,6.15
2023-01-08T20:39:33.076Z,6.16
2023-01-08T20:42:10.116Z,6.24
2023-01-08T20:44:47.561Z,6.23
2023-01-08T20:47:16.555Z,6.26
2023-01-08T20:49:45.460Z,6.27
2023-01-08T20:52:12.152Z,6.30
2023-01-08T20:54:40.116Z,6.33
2023-01-08T20:57:31.449Z,6.35
2023-01-08T20:59:58.784Z,6.34
2023-01-08T21:02:31.464Z,6.32
2023-01-08T21:04:58.424Z,6.27
2023-01-08T21:07:27.528Z,6.20
2023-01-08T21:10:19.122Z,6.13
2023-01-08T21:12:45.996Z,6.09
2023-01-08T21:15:12.896Z,6.06
2023-01-08T21:17:39.492Z,6.03
2023-01-08T21:20:06.343Z,6.00
2023-01-08T21:22:32.781Z,5.96
2023-01-08T21:25:10.692Z,5.92
2023-01-08T21:27:37.419Z,5.90
2023-01-08T21:30:05.587Z,5.87
2023-01-08T21:32:32.135Z,5.89
2023-01-08T21:37:49.613Z,5.87
2023-01-08T21:40:35.147Z,5.83
2023-01-08T21:43:20.155Z,5.80
2023-01-08T21:46:03.093Z,5.81
2023-01-08T21:48:29.673Z,5.85
2023-01-08T21:50:59.603Z,5.86
2023-01-08T21:53:34.206Z,5.89
2023-01-08T21:56:28.347Z,5.90
2023-01-08T21:59:20.543Z,5.94
2023-01-08T22:01:55.922Z,5.95
2023-01-08T22:04:33.011Z,5.97
2023-01-08T22:07:23.382Z,6.00
2023-01-08T22:09:49.940Z,6.04
2023-01-08T22:12:18.698Z,6.11
2023-01-08T22:14:49.132Z,6.18
2023-01-08T22:17:27.473Z,6.25
2023-01-08T22:20:00.199Z,6.31
2023-01-08T22:22:26.945Z,6.34
2023-01-08T22:24:53.958Z,6.38
2023-01-08T22:27:28.412Z,6.42
2023-01-08T22:30:02.235Z,6.45
2023-01-08T22:32:28.760Z,6.47
2023-01-08T22:37:53.266Z,6.48
2023-01-08T22:40:23.173Z,6.49
2023-01-08T22:43:01.972Z,6.49
2023-01-08T22:45:33.891Z,6.47
2023-01-08T22:48:04.086Z,6.48
2023-01-08T22:50:42.499Z,6.49
2023-01-08T22:53:09.026Z,6.46
2023-01-08T22:55:50.223Z,6.44
2023-01-08T22:58:22.165Z,6.44
2023-01-08T23:00:54.264Z,6.43
2023-01-08T23:03:20.748Z,6.40
2023-01-08T23:06:19.740Z,6.40
2023-01-08T23:09:26.743Z,6.38
2023-01-08T23:11:53.371Z,6.37
2023-01-08T23:14:25.612Z,6.36
2023-01-08T23:16:52.246Z,6.36
2023-01-08T23:19:18.684Z,6.35
2023-01-08T23:21:45.611Z,6.33
2023-01-08T23:24:13.917Z,6.32
2023-01-08T23:26:41.466Z,6.32
2023-01-08T23:29:15.476Z,6.30
2023-01-08T23:31:47.806Z,6.30
2023-01-08T23:34:23.818Z,6.28
2023-01-08T23:37:04.375Z,6.28
2023-01-08T23:39:40.596Z,6.26
2023-01-08T23:42:17.226Z,6.19
2023-01-08T23:45:41.372Z,6.15
2023-01-08T23:48:13.157Z,6.08
2023-01-08T23:50:40.943Z,6.05
2023-01-08T23:53:07.452Z,6.02
2023-01-08T23:55:34.349Z,5.99
2023-01-08T23:58:01.629Z,5.97
